createdAt,value
2023-03-29T00:01:35.350Z,95708.16
2023-03-29T00:04:06.269Z,95706.34
2023-03-29T00:06:34.788Z,95711.69
2023-03-29T00:09:05.392Z,95716.38
2023-03-29T00:11:33.681Z,95738.91
2023-03-29T00:14:01.548Z,95737.78
2023-03-29T00:16:29.425Z,95747.06
2023-03-29T00:18:57.260Z,95740.00
2023-03-29T00:21:26.691Z,95745.75
2023-03-29T00:23:54.536Z,95738.78
2023-03-29T00:26:22.318Z,95740.25
2023-03-29T00:28:50.175Z,95745.41
2023-03-29T00:31:19.313Z,95758.72
2023-03-29T00:33:47.486Z,95750.44
2023-03-29T00:36:16.062Z,95736.16
2023-03-29T00:38:45.397Z,95747.03
2023-03-29T00:41:13.300Z,95749.22
2023-03-29T00:43:58.391Z,95737.38
2023-03-29T00:46:27.540Z,95749.31
2023-03-29T00:48:59.665Z,95728.66
2023-03-29T00:51:32.017Z,95735.47
2023-03-29T00:54:04.472Z,95724.97
2023-03-29T00:56:37.113Z,95722.91
2023-03-29T00:59:08.226Z,95720.50
2023-03-29T01:01:42.256Z,95707.69
2023-03-29T01:04:18.510Z,95707.03
2023-03-29T01:06:51.611Z,95703.84
2023-03-29T01:09:23.200Z,95691.91
2023-03-29T01:11:57.053Z,95688.34
2023-03-29T01:14:31.532Z,95685.75
2023-03-29T01:16:59.441Z,95675.72
2023-03-29T01:19:33.902Z,95676.03
2023-03-29T01:22:13.540Z,95674.53
2023-03-29T01:24:55.673Z,95653.84
2023-03-29T01:27:48.646Z,95638.25
2023-03-29T01:30:22.191Z,95644.56
2023-03-29T01:32:56.933Z,95646.25
2023-03-29T01:35:32.561Z,95646.91
2023-03-29T01:38:07.276Z,95652.91
2023-03-29T01:40:35.834Z,95621.53
2023-03-29T01:43:17.515Z,95592.34
2023-03-29T01:45:50.973Z,95600.69
2023-03-29T01:48:26.060Z,95603.88
2023-03-29T01:50:56.982Z,95578.44
2023-03-29T01:53:30.600Z,95587.88
2023-03-29T01:56:04.396Z,95597.44
2023-03-29T01:58:38.538Z,95591.69
2023-03-29T02:01:10.452Z,95570.91
2023-03-29T02:03:44.430Z,95566.72
2023-03-29T02:06:14.932Z,95566.28
2023-03-29T02:08:44.013Z,95565.25
2023-03-29T02:11:14.929Z,95557.91
2023-03-29T02:13:44.450Z,95547.50
2023-03-29T02:16:14.267Z,95535.03
2023-03-29T02:18:45.140Z,95547.13
2023-03-29T02:21:21.199Z,95546.91
2023-03-29T02:23:51.582Z,95546.19
2023-03-29T02:26:19.657Z,95511.69
2023-03-29T02:28:49.301Z,95525.69
2023-03-29T02:31:26.083Z,95529.91
2023-03-29T02:34:00.409Z,95528.88
2023-03-29T02:36:32.132Z,95523.31
2023-03-29T02:39:04.333Z,95516.13
2023-03-29T02:41:35.033Z,95515.13
2023-03-29T02:44:07.727Z,95488.72
2023-03-29T02:46:37.842Z,95501.06
2023-03-29T02:49:06.649Z,95505.16
2023-03-29T02:51:37.572Z,95513.28
2023-03-29T02:54:09.127Z,95514.88
2023-03-29T02:56:44.694Z,95500.75
2023-03-29T02:59:14.474Z,95488.28
2023-03-29T03:01:42.808Z,95499.09
2023-03-29T03:04:11.234Z,95504.53
2023-03-29T03:06:39.697Z,95501.69
2023-03-29T03:09:07.993Z,95492.19
2023-03-29T03:11:38.614Z,95488.22
2023-03-29T03:14:07.539Z,95493.28
2023-03-29T03:16:38.636Z,95491.31
2023-03-29T03:19:06.954Z,95501.97
2023-03-29T03:21:35.205Z,95498.66
2023-03-29T03:24:03.247Z,95489.00
2023-03-29T03:26:31.152Z,95484.78
2023-03-29T03:28:59.115Z,95473.00
2023-03-29T03:31:54.457Z,95464.31
2023-03-29T03:34:41.089Z,95444.22
2023-03-29T03:37:12.050Z,95456.03
2023-03-29T03:39:40.312Z,95460.03
2023-03-29T03:42:10.033Z,95452.19
2023-03-29T03:44:43.117Z,95447.97
2023-03-29T03:47:45.400Z,95438.00
2023-03-29T03:50:39.177Z,95445.00
2023-03-29T03:53:08.324Z,95436.47
2023-03-29T03:55:56.923Z,95421.78
2023-03-29T03:58:28.568Z,95425.09
2023-03-29T04:00:58.043Z,95417.13
2023-03-29T04:03:40.973Z,95413.28
2023-03-29T04:06:12.465Z,95414.53
2023-03-29T04:09:00.217Z,95416.34
2023-03-29T04:11:35.672Z,95418.22
2023-03-29T04:14:04.373Z,95418.66
2023-03-29T04:16:52.533Z,95414.88
2023-03-29T04:19:46.838Z,95409.13
2023-03-29T04:22:15.054Z,95417.88
2023-03-29T04:24:43.847Z,95416.56
2023-03-29T04:27:40.849Z,95407.00
2023-03-29T04:30:22.023Z,95402.88
2023-03-29T04:33:10.260Z,95402.94
2023-03-29T04:35:42.416Z,95399.56
2023-03-29T04:38:17.053Z,95405.97
2023-03-29T04:40:48.481Z,95403.09
2023-03-29T04:43:46.338Z,95408.50
2023-03-29T04:46:33.347Z,95410.63
2023-03-29T04:49:25.999Z,95412.59
2023-03-29T04:51:55.978Z,95409.56
2023-03-29T04:54:27.900Z,95404.03
2023-03-29T04:57:03.084Z,95398.81
2023-03-29T04:59:54.421Z,95408.97
2023-03-29T05:02:51.627Z,95393.16
2023-03-29T05:05:20.158Z,95398.53
2023-03-29T05:07:51.780Z,95401.09
2023-03-29T05:10:24.535Z,95418.09
2023-03-29T05:12:54.115Z,95410.03
2023-03-29T05:15:23.796Z,95410.38
2023-03-29T05:17:51.636Z,95420.53
2023-03-29T05:20:19.494Z,95411.63
2023-03-29T05:22:48.667Z,95419.75
2023-03-29T05:25:37.867Z,95421.66
2023-03-29T05:28:05.784Z,95415.94
2023-03-29T05:30:33.753Z,95409.91
2023-03-29T05:33:10.410Z,95411.19
2023-03-29T05:35:40.776Z,95407.38
2023-03-29T05:38:09.726Z,95406.59
2023-03-29T05:40:41.408Z,95405.94
2023-03-29T05:43:41.175Z,95415.47
2023-03-29T05:46:09.292Z,95408.47
2023-03-29T05:48:42.133Z,95410.25
2023-03-29T05:51:11.403Z,95423.91
2023-03-29T05:53:39.486Z,95416.09
2023-03-29T05:56:10.820Z,95413.91
2023-03-29T05:58:39.368Z,95428.03
2023-03-29T06:01:12.814Z,95429.31
2023-03-29T06:03:55.845Z,95425.66
2023-03-29T06:06:27.883Z,95419.13
2023-03-29T06:08:56.004Z,95424.75
2023-03-29T06:11:40.973Z,95428.84
2023-03-29T06:14:30.489Z,95422.47
2023-03-29T06:17:17.547Z,95427.88
2023-03-29T06:19:47.619Z,95430.28
2023-03-29T06:22:19.118Z,95431.41
2023-03-29T06:24:47.134Z,95433.00
2023-03-29T06:27:25.277Z,95436.66
2023-03-29T06:29:56.610Z,95441.59
2023-03-29T06:32:24.478Z,95448.13
2023-03-29T06:34:58.671Z,95445.84
2023-03-29T06:37:50.447Z,95449.84
2023-03-29T06:40:25.693Z,95459.56
2023-03-29T06:42:59.663Z,95464.94
2023-03-29T06:45:48.248Z,95475.91
2023-03-29T06:48:30.279Z,95461.22
2023-03-29T06:50:58.571Z,95464.06
2023-03-29T06:53:29.795Z,95457.78
2023-03-29T06:56:05.169Z,95456.03
2023-03-29T06:58:42.481Z,95463.00
2023-03-29T07:01:28.686Z,95444.81
2023-03-29T07:04:08.155Z,95449.88
2023-03-29T07:06:58.726Z,95458.13
2023-03-29T07:09:29.866Z,95457.22
2023-03-29T07:12:16.786Z,95447.91
2023-03-29T07:14:46.840Z,95463.59
2023-03-29T07:17:16.683Z,95459.97
2023-03-29T07:19:44.583Z,95460.69
2023-03-29T07:22:15.290Z,95462.31
2023-03-29T07:24:50.783Z,95466.59
2023-03-29T07:27:19.572Z,95471.81
2023-03-29T07:29:51.609Z,95461.78
2023-03-29T07:32:20.437Z,95472.47
2023-03-29T07:34:56.668Z,95474.84
2023-03-29T07:37:31.455Z,95482.69
2023-03-29T07:40:01.090Z,95490.75
2023-03-29T07:42:56.726Z,95475.03
2023-03-29T07:45:29.608Z,95479.00
2023-03-29T07:48:02.129Z,95479.81
2023-03-29T07:50:45.624Z,95493.81
2023-03-29T07:53:14.097Z,95484.44
2023-03-29T07:55:47.286Z,95491.00
2023-03-29T07:58:38.553Z,95510.88
2023-03-29T08:01:10.032Z,95494.38
2023-03-29T08:03:58.641Z,95487.94
2023-03-29T08:06:46.739Z,95489.44
2023-03-29T08:09:14.701Z,95493.69
2023-03-29T08:11:45.315Z,95493.06
2023-03-29T08:14:23.828Z,95491.91
2023-03-29T08:17:07.518Z,95501.06
2023-03-29T08:19:41.096Z,95507.34
2023-03-29T08:22:25.278Z,95500.28
2023-03-29T08:25:23.433Z,95480.16
2023-03-29T08:27:57.343Z,95492.50
2023-03-29T08:30:37.317Z,95504.78
2023-03-29T08:33:07.869Z,95502.06
2023-03-29T08:35:36.245Z,95493.16
2023-03-29T08:38:12.956Z,95497.31
2023-03-29T08:40:41.347Z,95495.25
2023-03-29T08:43:35.319Z,95486.31
2023-03-29T08:46:34.499Z,95484.88
2023-03-29T08:49:17.505Z,95485.81
2023-03-29T08:51:48.976Z,95487.38
2023-03-29T08:54:20.522Z,95492.72
2023-03-29T08:57:16.991Z,95471.41
2023-03-29T08:59:51.904Z,95481.28
2023-03-29T09:02:24.403Z,95479.44
2023-03-29T09:05:03.322Z,95475.31
2023-03-29T09:07:43.184Z,95498.25
2023-03-29T09:10:15.628Z,95476.53
2023-03-29T09:12:55.962Z,95491.38
2023-03-29T09:15:29.344Z,95476.53
2023-03-29T09:18:15.038Z,95481.47
2023-03-29T09:20:53.342Z,95487.81
2023-03-29T09:23:48.317Z,95484.41
2023-03-29T09:26:37.493Z,95489.00
2023-03-29T09:29:32.228Z,95489.53
2023-03-29T09:32:04.354Z,95483.94
2023-03-29T09:34:42.200Z,95484.78
2023-03-29T09:37:24.675Z,95487.13
2023-03-29T09:39:55.700Z,95492.06
2023-03-29T09:42:30.216Z,95492.16
2023-03-29T09:45:03.399Z,95483.09
2023-03-29T09:47:43.246Z,95477.19
2023-03-29T09:50:29.608Z,95480.63
2023-03-29T09:53:01.328Z,95468.38
2023-03-29T09:55:34.094Z,95462.91
2023-03-29T09:58:24.655Z,95467.31
2023-03-29T10:00:58.115Z,95463.91
2023-03-29T10:03:28.391Z,95468.44
2023-03-29T10:06:10.860Z,95456.84
2023-03-29T10:08:47.743Z,95463.69
2023-03-29T10:11:23.231Z,95455.47
2023-03-29T10:13:55.054Z,95449.34
2023-03-29T10:16:24.597Z,95456.72
2023-03-29T10:18:54.606Z,95449.81
2023-03-29T10:21:23.818Z,95458.06
2023-03-29T10:23:59.426Z,95451.09
2023-03-29T10:26:32.523Z,95458.44
2023-03-29T10:29:01.913Z,95440.78
2023-03-29T10:31:31.457Z,95437.66
2023-03-29T10:34:04.759Z,95452.31
2023-03-29T10:36:32.881Z,95434.38
2023-03-29T10:39:06.197Z,95430.13
2023-03-29T10:41:36.734Z,95415.88
2023-03-29T10:44:05.202Z,95422.78
2023-03-29T10:46:41.091Z,95425.34
2023-03-29T10:49:19.645Z,95439.41
2023-03-29T10:51:49.302Z,95427.16
2023-03-29T10:54:22.159Z,95424.59
2023-03-29T10:56:54.978Z,95420.53
2023-03-29T10:59:28.650Z,95440.19
2023-03-29T11:02:26.049Z,95425.50
2023-03-29T11:05:06.263Z,95409.72
2023-03-29T11:07:39.779Z,95419.59
2023-03-29T11:10:28.375Z,95404.31
2023-03-29T11:13:02.252Z,95412.25
2023-03-29T11:15:41.568Z,95434.47
2023-03-29T11:18:31.603Z,95421.06
2023-03-29T11:21:11.082Z,95426.00
2023-03-29T11:23:50.777Z,95429.00
2023-03-29T11:26:24.390Z,95442.13
2023-03-29T11:28:57.705Z,95428.69
2023-03-29T11:31:37.989Z,95419.75
2023-03-29T11:34:20.798Z,95415.25
2023-03-29T11:36:57.349Z,95424.63
2023-03-29T11:39:36.582Z,95440.91
2023-03-29T11:42:13.171Z,95422.47
2023-03-29T11:44:43.161Z,95432.75
2023-03-29T11:47:15.202Z,95430.38
2023-03-29T11:49:49.138Z,95417.69
2023-03-29T11:52:22.399Z,95420.66
2023-03-29T11:54:53.415Z,95416.72
2023-03-29T11:57:27.806Z,95413.88
2023-03-29T12:03:02.047Z,95404.53
2023-03-29T12:05:35.049Z,95408.84
2023-03-29T12:08:06.899Z,95407.97
2023-03-29T12:10:38.729Z,95397.97
2023-03-29T12:13:16.354Z,95397.97
2023-03-29T12:15:49.637Z,95394.44
2023-03-29T12:18:22.379Z,95391.84
2023-03-29T12:20:57.495Z,95401.00
2023-03-29T12:23:27.437Z,95392.75
2023-03-29T12:26:04.904Z,95390.31
2023-03-29T12:29:05.320Z,95390.22
2023-03-29T12:31:41.970Z,95390.66
2023-03-29T12:34:22.044Z,95369.34
2023-03-29T12:37:33.901Z,95371.81
2023-03-29T12:40:22.018Z,95376.81
2023-03-29T12:43:09.837Z,95374.00
2023-03-29T12:46:06.876Z,95372.84
2023-03-29T12:48:38.283Z,95369.06
2023-03-29T12:51:09.906Z,95372.34
2023-03-29T12:53:41.462Z,95370.03
2023-03-29T12:56:16.079Z,95362.63
2023-03-29T12:58:54.209Z,95358.44
2023-03-29T13:01:29.207Z,95369.06
2023-03-29T13:04:13.772Z,95361.66
2023-03-29T13:07:03.941Z,95353.72
2023-03-29T13:09:35.657Z,95350.81
2023-03-29T13:12:10.194Z,95342.81
2023-03-29T13:14:42.671Z,95354.47
2023-03-29T13:17:25.734Z,95349.16
2023-03-29T13:20:09.259Z,95345.00
2023-03-29T13:22:48.840Z,95351.34
2023-03-29T13:25:46.152Z,95359.25
2023-03-29T13:28:23.289Z,95343.13
2023-03-29T13:31:00.151Z,95342.25
2023-03-29T13:33:58.565Z,95341.03
2023-03-29T13:36:39.640Z,95340.94
2023-03-29T13:39:08.762Z,95340.84
2023-03-29T13:41:49.405Z,95343.19
2023-03-29T13:44:30.189Z,95358.25
2023-03-29T13:47:10.986Z,95342.47
2023-03-29T13:49:43.946Z,95340.06
2023-03-29T13:52:19.840Z,95357.84
2023-03-29T13:54:54.853Z,95340.69
2023-03-29T13:57:26.152Z,95349.06
2023-03-29T14:00:00.505Z,95343.03
2023-03-29T14:02:56.905Z,95332.91
2023-03-29T14:05:31.519Z,95352.22
2023-03-29T14:08:09.562Z,95344.31
2023-03-29T14:10:41.619Z,95331.50
2023-03-29T14:13:13.708Z,95320.97
2023-03-29T14:15:46.313Z,95353.63
2023-03-29T14:18:17.450Z,95323.44
2023-03-29T14:20:49.139Z,95311.47
2023-03-29T14:23:21.823Z,95314.69
2023-03-29T14:25:49.896Z,95324.59
2023-03-29T14:28:23.192Z,95326.00
2023-03-29T14:30:52.784Z,95331.97
2023-03-29T14:33:34.426Z,95332.06
2023-03-29T14:36:05.896Z,95334.19
2023-03-29T14:38:37.157Z,95337.28
2023-03-29T14:41:05.411Z,95337.13
2023-03-29T14:43:33.641Z,95320.84
2023-03-29T14:46:06.996Z,95315.50
2023-03-29T14:48:35.766Z,95313.84
2023-03-29T14:51:05.984Z,95308.88
2023-03-29T14:53:34.480Z,95313.31
2023-03-29T14:56:02.561Z,95331.34
2023-03-29T14:58:34.225Z,95332.47
2023-03-29T15:01:06.979Z,95353.38
2023-03-29T15:03:44.430Z,95356.00
2023-03-29T15:06:15.088Z,95351.06
2023-03-29T15:08:51.111Z,95351.00
2023-03-29T15:11:24.235Z,95350.06
2023-03-29T15:13:55.156Z,95349.94
2023-03-29T15:16:23.492Z,95349.38
2023-03-29T15:18:53.856Z,95358.13
2023-03-29T15:21:23.697Z,95340.91
2023-03-29T15:23:54.815Z,95358.88
2023-03-29T15:26:26.189Z,95353.09
2023-03-29T15:28:57.457Z,95341.78
2023-03-29T15:31:27.494Z,95339.97
2023-03-29T15:34:06.235Z,95339.34
2023-03-29T15:36:42.111Z,95324.50
2023-03-29T15:39:13.475Z,95326.63
2023-03-29T15:41:41.724Z,95316.19
2023-03-29T15:44:09.691Z,95318.78
2023-03-29T15:46:37.973Z,95307.16
2023-03-29T15:49:05.997Z,95310.91
2023-03-29T15:51:33.753Z,95294.78
2023-03-29T15:54:02.944Z,95291.00
2023-03-29T15:56:33.410Z,95293.38
2023-03-29T15:59:01.710Z,95289.44
2023-03-29T16:01:35.218Z,95285.28
2023-03-29T16:04:03.704Z,95291.59
2023-03-29T16:06:31.631Z,95295.13
2023-03-29T16:08:59.569Z,95306.16
2023-03-29T16:11:29.115Z,95306.78
2023-03-29T16:13:57.768Z,95303.19
2023-03-29T16:16:26.081Z,95294.50
2023-03-29T16:18:53.896Z,95301.22
2023-03-29T16:21:23.327Z,95289.16
2023-03-29T16:23:51.739Z,95290.50
2023-03-29T16:26:19.544Z,95299.16
2023-03-29T16:28:48.785Z,95290.88
2023-03-29T16:31:16.631Z,95285.75
2023-03-29T16:33:44.758Z,95273.81
2023-03-29T16:36:13.137Z,95284.34
2023-03-29T16:38:41.547Z,95277.97
2023-03-29T16:41:12.559Z,95257.47
2023-03-29T16:43:40.441Z,95271.59
2023-03-29T16:46:10.251Z,95267.63
2023-03-29T16:48:38.541Z,95282.22
2023-03-29T16:51:10.106Z,95263.25
2023-03-29T16:53:38.127Z,95267.22
2023-03-29T16:56:07.861Z,95252.22
2023-03-29T16:58:36.187Z,95256.50
2023-03-29T17:01:16.694Z,95234.41
2023-03-29T17:03:45.029Z,95233.63
2023-03-29T17:06:12.992Z,95231.00
2023-03-29T17:08:42.391Z,95229.44
2023-03-29T17:11:11.756Z,95228.63
2023-03-29T17:13:40.306Z,95242.59
2023-03-29T17:16:09.266Z,95229.38
2023-03-29T17:18:38.640Z,95218.53
2023-03-29T17:21:07.451Z,95221.50
2023-03-29T17:23:35.351Z,95220.72
2023-03-29T17:26:03.436Z,95221.09
2023-03-29T17:28:31.420Z,95217.56
2023-03-29T17:30:59.408Z,95216.75
2023-03-29T17:33:27.339Z,95211.44
2023-03-29T17:35:57.583Z,95210.66
2023-03-29T17:38:26.674Z,95210.47
2023-03-29T17:40:54.809Z,95224.06
2023-03-29T17:43:23.152Z,95219.50
2023-03-29T17:45:54.600Z,95217.94
2023-03-29T17:48:24.469Z,95212.97
2023-03-29T17:50:52.394Z,95226.63
2023-03-29T17:53:21.687Z,95229.38
2023-03-29T17:55:49.465Z,95225.59
2023-03-29T17:58:17.337Z,95242.53
2023-03-29T18:00:45.150Z,95237.78
2023-03-29T18:03:13.023Z,95243.84
2023-03-29T18:05:40.827Z,95224.25
2023-03-29T18:08:09.121Z,95224.78
2023-03-29T18:10:38.280Z,95226.34
2023-03-29T18:13:05.995Z,95227.09
2023-03-29T18:15:33.750Z,95233.25
2023-03-29T18:18:01.609Z,95244.47
2023-03-29T18:20:29.520Z,95241.94
2023-03-29T18:22:57.434Z,95240.97
2023-03-29T18:25:26.255Z,95232.81
2023-03-29T18:27:55.473Z,95239.03
2023-03-29T18:30:23.272Z,95231.28
2023-03-29T18:32:51.064Z,95227.44
2023-03-29T18:35:18.908Z,95230.78
2023-03-29T18:37:46.966Z,95238.03
2023-03-29T18:40:15.584Z,95228.53
2023-03-29T18:42:43.374Z,95223.97
2023-03-29T18:45:13.554Z,95223.94
2023-03-29T18:47:41.407Z,95233.94
2023-03-29T18:50:10.351Z,95235.88
2023-03-29T18:52:38.188Z,95225.03
2023-03-29T18:55:07.347Z,95233.25
2023-03-29T18:57:35.220Z,95227.78
2023-03-29T19:00:12.577Z,95233.69
2023-03-29T19:02:42.421Z,95235.44
2023-03-29T19:05:11.279Z,95240.56
2023-03-29T19:07:39.187Z,95237.47
2023-03-29T19:10:08.570Z,95241.44
2023-03-29T19:12:41.243Z,95225.28
2023-03-29T19:15:10.724Z,95229.25
2023-03-29T19:17:38.522Z,95224.13
2023-03-29T19:20:10.024Z,95216.44
2023-03-29T19:22:37.888Z,95217.41
2023-03-29T19:25:07.493Z,95217.63
2023-03-29T19:27:35.326Z,95223.72
2023-03-29T19:30:03.119Z,95229.44
2023-03-29T19:32:32.517Z,95228.66
2023-03-29T19:35:01.483Z,95226.09
2023-03-29T19:37:30.804Z,95225.13
2023-03-29T19:39:58.643Z,95225.53
2023-03-29T19:42:26.506Z,95222.75
2023-03-29T19:44:54.246Z,95227.88
2023-03-29T19:47:22.050Z,95231.47
2023-03-29T19:49:50.280Z,95239.38
2023-03-29T19:52:18.080Z,95237.59
2023-03-29T19:54:47.349Z,95251.69
2023-03-29T19:57:15.279Z,95239.94
2023-03-29T19:59:43.294Z,95252.03
2023-03-29T20:02:11.845Z,95263.53
2023-03-29T20:04:40.046Z,95265.94
2023-03-29T20:07:08.391Z,95258.47
2023-03-29T20:09:36.587Z,95267.34
2023-03-29T20:12:06.145Z,95279.63
2023-03-29T20:14:34.959Z,95275.88
2023-03-29T20:17:05.791Z,95260.69
2023-03-29T20:19:36.557Z,95246.81
2023-03-29T20:22:05.314Z,95242.44
2023-03-29T20:24:34.633Z,95233.56
2023-03-29T20:27:04.460Z,95234.72
2023-03-29T20:29:34.442Z,95235.53
2023-03-29T20:32:02.584Z,95233.34
2023-03-29T20:34:30.834Z,95229.59
2023-03-29T20:37:00.855Z,95220.50
2023-03-29T20:39:29.585Z,95234.13
2023-03-29T20:41:57.522Z,95228.59
2023-03-29T20:44:26.292Z,95213.97
2023-03-29T20:47:03.363Z,95217.69
2023-03-29T20:49:37.210Z,95216.91
2023-03-29T20:52:08.286Z,95216.91
2023-03-29T20:54:36.986Z,95208.22
2023-03-29T20:57:05.347Z,95202.91
2023-03-29T20:59:34.339Z,95204.88
2023-03-29T21:02:03.560Z,95200.34
2023-03-29T21:04:31.793Z,95190.75
2023-03-29T21:07:02.492Z,95181.53
2023-03-29T21:09:31.026Z,95166.88
2023-03-29T21:11:58.868Z,95171.03
2023-03-29T21:14:26.703Z,95145.53
2023-03-29T21:16:54.629Z,95151.25
2023-03-29T21:19:24.209Z,95149.84
2023-03-29T21:21:52.305Z,95158.75
2023-03-29T21:24:20.257Z,95158.94
2023-03-29T21:26:48.376Z,95150.66
2023-03-29T21:29:16.283Z,95155.16
2023-03-29T21:31:44.200Z,95168.78
2023-03-29T21:34:12.051Z,95149.44
2023-03-29T21:36:42.323Z,95154.00
2023-03-29T21:39:10.159Z,95148.28
2023-03-29T21:41:37.989Z,95143.34
2023-03-29T21:44:05.770Z,95142.53
2023-03-29T21:46:33.641Z,95156.81
2023-03-29T21:49:01.564Z,95176.94
2023-03-29T21:51:29.367Z,95180.41
2023-03-29T21:53:58.532Z,95174.03
2023-03-29T21:56:26.431Z,95178.47
2023-03-29T21:58:54.258Z,95173.72
2023-03-29T22:01:22.109Z,95173.22
2023-03-29T22:03:49.977Z,95170.56
2023-03-29T22:06:17.753Z,95167.22
2023-03-29T22:08:46.692Z,95178.09
2023-03-29T22:11:17.509Z,95161.09
2023-03-29T22:13:45.930Z,95158.13
2023-03-29T22:16:16.808Z,95149.63
2023-03-29T22:18:49.073Z,95155.56
2023-03-29T22:21:19.271Z,95136.97
2023-03-29T22:23:49.711Z,95146.22
2023-03-29T22:26:21.393Z,95151.75
2023-03-29T22:28:49.214Z,95143.44
2023-03-29T22:31:19.131Z,95140.47
2023-03-29T22:33:47.559Z,95138.72
2023-03-29T22:36:17.215Z,95126.44
2023-03-29T22:38:46.251Z,95133.38
2023-03-29T22:41:15.094Z,95125.50
2023-03-29T22:43:44.306Z,95122.91
2023-03-29T22:46:14.433Z,95119.50
2023-03-29T22:48:42.288Z,95122.88
2023-03-29T22:51:10.079Z,95112.22
2023-03-29T22:53:37.885Z,95112.44
2023-03-29T22:56:07.000Z,95111.59
2023-03-29T22:58:34.927Z,95114.16
2023-03-29T23:01:04.821Z,95105.69
2023-03-29T23:03:33.371Z,95106.09
2023-03-29T23:06:02.309Z,95098.00
2023-03-29T23:08:31.845Z,95093.47
2023-03-29T23:11:00.123Z,95087.00
2023-03-29T23:13:29.091Z,95086.59
2023-03-29T23:15:59.273Z,95090.53
2023-03-29T23:18:30.424Z,95080.09
2023-03-29T23:21:00.327Z,95091.31
2023-03-29T23:23:29.188Z,95091.53
2023-03-29T23:25:57.870Z,95091.53
2023-03-29T23:28:30.211Z,95080.72
2023-03-29T23:31:00.323Z,95073.41
2023-03-29T23:33:33.215Z,95074.59
2023-03-29T23:36:03.332Z,95067.09
2023-03-29T23:38:31.902Z,95068.09
2023-03-29T23:41:02.038Z,95069.69
2023-03-29T23:43:35.383Z,95068.72
2023-03-29T23:46:04.477Z,95066.34
2023-03-29T23:48:34.235Z,95072.28
2023-03-29T23:51:03.012Z,95068.34
2023-03-29T23:53:32.075Z,95076.44
2023-03-29T23:56:01.558Z,95078.03
2023-03-29T23:58:29.909Z,95078.03
